Time;durP1;ratioP1;P1;durP2;ratioP2;P2;SDS_P1;SDS_P2;PMS_P1;PMS_P2;Temp;Humidity;BMP_temperature;BMP_pressure;BME280_temperature;BME280_humidity;BME280_pressure;Samples;Min_cycle;Max_cycle;Signal;HPM_P1;HPM_P2
2023/05/16 00:01:15;;;;;;;2.87;2.00;;;;;;;;;;4977769;28;20222;-86
2023/05/16 00:03:43;;;;;;;3.43;2.10;;;;;;;;;;4961476;28;20242;-84
2023/05/16 00:06:11;;;;;;;2.20;2.00;;;;;;;;;;4952971;28;20798;-87
2023/05/16 00:08:36;;;;;;;2.40;2.20;;;;;;;;;;4943507;28;20223;-83
2023/05/16 00:11:02;;;;;;;2.83;2.50;;;;;;;;;;4942258;28;20273;-87
2023/05/16 00:13:28;;;;;;;2.83;2.30;;;;;;;;;;4928108;28;20217;-85
2023/05/16 00:15:55;;;;;;;3.20;2.40;;;;;;;;;;4957680;28;20578;-84
2023/05/16 00:18:22;;;;;;;2.97;2.20;;;;;;;;;;4972128;28;21124;-83
2023/05/16 00:20:48;;;;;;;3.00;2.40;;;;;;;;;;4971658;28;20252;-83
2023/05/16 00:23:14;;;;;;;2.33;2.10;;;;;;;;;;4970663;28;20230;-83
2023/05/16 00:25:42;;;;;;;2.90;2.27;;;;;;;;;;4952254;28;20575;-81
2023/05/16 00:28:10;;;;;;;4.53;2.50;;;;;;;;;;4959180;28;20226;-85
2023/05/16 00:30:38;;;;;;;3.03;2.30;;;;;;;;;;4993076;28;20226;-85
2023/05/16 00:33:03;;;;;;;3.63;2.10;;;;;;;;;;4945836;28;20222;-85
2023/05/16 00:35:29;;;;;;;2.97;2.00;;;;;;;;;;4943144;28;20699;-87
2023/05/16 00:37:55;;;;;;;3.97;2.47;;;;;;;;;;4961738;28;20786;-83
2023/05/16 00:40:20;;;;;;;3.17;2.03;;;;;;;;;;4939140;28;20595;-82
2023/05/16 00:42:48;;;;;;;2.17;1.97;;;;;;;;;;4950986;28;20226;-83
2023/05/16 00:45:16;;;;;;;3.30;2.10;;;;;;;;;;4981985;28;20222;-82
2023/05/16 00:47:44;;;;;;;2.47;2.23;;;;;;;;;;4937631;28;20278;-83
2023/05/16 00:50:09;;;;;;;2.67;2.37;;;;;;;;;;4951235;28;20703;-83
2023/05/16 00:52:35;;;;;;;3.57;2.20;;;;;;;;;;4987268;28;20222;-85
2023/05/16 00:55:04;;;;;;;2.63;1.80;;;;;;;;;;4952410;28;20253;-88
2023/05/16 00:57:35;;;;;;;3.63;1.97;;;;;;;;;;4922271;28;20651;-85
2023/05/16 01:00:04;;;;;;;2.73;1.90;;;;;;;;;;4956202;28;20295;-88
2023/05/16 01:02:30;;;;;;;3.23;2.00;;;;;;;;;;4939226;28;20227;-84
2023/05/16 01:04:58;;;;;;;3.23;2.17;;;;;;;;;;4952255;28;20221;-82
2023/05/16 01:07:23;;;;;;;2.20;1.63;;;;;;;;;;4972108;28;20222;-85
2023/05/16 01:09:49;;;;;;;3.07;2.03;;;;;;;;;;4969746;28;20253;-84
2023/05/16 01:12:30;;;;;;;5.07;2.00;;;;;;;;;;4991099;28;20294;-87
2023/05/16 01:15:11;;;;;;;3.53;1.90;;;;;;;;;;4985211;28;20222;-85
2023/05/16 01:17:46;;;;;;;4.70;1.80;;;;;;;;;;4936538;28;20237;-85
2023/05/16 01:20:24;;;;;;;3.53;1.73;;;;;;;;;;4940003;28;20224;-84
2023/05/16 01:23:08;;;;;;;3.67;1.73;;;;;;;;;;4986717;28;20280;-84
2023/05/16 01:25:56;;;;;;;2.97;1.57;;;;;;;;;;4982765;28;20265;-86
2023/05/16 01:28:21;;;;;;;3.03;1.80;;;;;;;;;;4969739;28;20269;-84
2023/05/16 01:30:49;;;;;;;1.70;1.60;;;;;;;;;;4952362;28;20806;-83
2023/05/16 01:33:15;;;;;;;2.77;1.90;;;;;;;;;;4934277;28;20234;-83
2023/05/16 01:36:16;;;;;;;1.93;1.60;;;;;;;;;;4936724;28;20233;-85
2023/05/16 01:39:00;;;;;;;1.93;1.70;;;;;;;;;;4927248;28;20221;-83
2023/05/16 01:41:55;;;;;;;2.57;1.90;;;;;;;;;;4999270;28;20261;-85
2023/05/16 01:44:35;;;;;;;3.20;2.10;;;;;;;;;;4948160;28;20234;-85
2023/05/16 01:47:01;;;;;;;2.10;2.00;;;;;;;;;;4936733;28;20256;-86
2023/05/16 01:49:35;;;;;;;3.13;2.03;;;;;;;;;;4951298;28;20214;-84
2023/05/16 01:52:04;;;;;;;4.13;2.47;;;;;;;;;;4965742;28;20232;-82
2023/05/16 01:54:31;;;;;;;3.43;2.10;;;;;;;;;;4947435;28;20259;-85
2023/05/16 01:56:56;;;;;;;3.13;1.80;;;;;;;;;;4934289;28;20304;-84
2023/05/16 01:59:23;;;;;;;3.30;1.97;;;;;;;;;;4934431;28;20226;-84
2023/05/16 02:01:53;;;;;;;4.63;2.17;;;;;;;;;;4969649;28;20218;-86
2023/05/16 02:04:21;;;;;;;2.03;1.80;;;;;;;;;;4951507;28;20226;-88
2023/05/16 02:06:48;;;;;;;2.50;1.70;;;;;;;;;;4993038;28;20222;-84
2023/05/16 02:09:17;;;;;;;2.77;1.73;;;;;;;;;;4962145;28;20229;-83
2023/05/16 02:11:42;;;;;;;3.53;1.80;;;;;;;;;;5018969;28;20234;-86
2023/05/16 02:14:08;;;;;;;3.30;1.53;;;;;;;;;;5010626;28;20245;-86
2023/05/16 02:16:34;;;;;;;3.67;1.80;;;;;;;;;;4961458;28;20820;-86
2023/05/16 02:18:59;;;;;;;2.00;1.40;;;;;;;;;;4953868;28;20238;-86
2023/05/16 02:21:25;;;;;;;1.70;1.60;;;;;;;;;;4978461;28;20236;-83
2023/05/16 02:23:53;;;;;;;3.63;1.73;;;;;;;;;;4947239;28;20315;-83
2023/05/16 02:26:18;;;;;;;3.20;1.77;;;;;;;;;;4977349;28;20234;-84
2023/05/16 02:28:44;;;;;;;3.37;1.53;;;;;;;;;;4996826;28;20240;-82
2023/05/16 02:31:13;;;;;;;3.00;1.60;;;;;;;;;;4982221;28;20277;-85
2023/05/16 02:33:38;;;;;;;2.20;1.47;;;;;;;;;;4993561;28;20275;-81
2023/05/16 02:36:04;;;;;;;2.30;1.57;;;;;;;;;;4960254;28;20289;-82
2023/05/16 02:38:29;;;;;;;1.70;1.60;;;;;;;;;;4998535;28;20210;-84
2023/05/16 02:40:55;;;;;;;3.50;1.57;;;;;;;;;;5006168;28;20230;-85
2023/05/16 02:43:21;;;;;;;1.80;1.43;;;;;;;;;;4984094;28;20687;-84
2023/05/16 02:45:49;;;;;;;2.63;1.20;;;;;;;;;;4951040;28;20306;-83
2023/05/16 02:48:18;;;;;;;2.73;1.40;;;;;;;;;;4972360;28;20199;-86
2023/05/16 02:50:43;;;;;;;3.17;1.40;;;;;;;;;;4974840;28;20692;-82
2023/05/16 02:53:09;;;;;;;2.97;1.60;;;;;;;;;;4953376;28;20268;-84
2023/05/16 02:55:35;;;;;;;3.17;1.47;;;;;;;;;;4957287;28;20225;-83
2023/05/16 02:58:02;;;;;;;3.27;1.60;;;;;;;;;;4947429;28;20222;-83
2023/05/16 03:00:31;;;;;;;4.13;1.40;;;;;;;;;;4954325;28;20241;-82
2023/05/16 03:02:56;;;;;;;3.63;1.40;;;;;;;;;;4941125;29;20664;-84
2023/05/16 03:05:22;;;;;;;3.83;1.70;;;;;;;;;;4958442;28;20228;-84
2023/05/16 03:07:48;;;;;;;3.50;1.67;;;;;;;;;;4971672;28;20245;-86
2023/05/16 03:10:13;;;;;;;4.27;1.50;;;;;;;;;;4973571;28;20223;-82
2023/05/16 03:12:45;;;;;;;4.23;1.50;;;;;;;;;;4958748;28;20296;-85
2023/05/16 03:15:13;;;;;;;3.73;1.87;;;;;;;;;;4963764;28;20241;-85
2023/05/16 03:17:40;;;;;;;3.17;1.40;;;;;;;;;;4984863;28;20213;-83
2023/05/16 03:20:07;;;;;;;3.63;1.50;;;;;;;;;;5004568;28;20226;-86
2023/05/16 03:22:36;;;;;;;3.87;1.70;;;;;;;;;;4953906;28;20233;-86
2023/05/16 03:25:04;;;;;;;4.27;1.47;;;;;;;;;;4961264;28;20236;-86
2023/05/16 03:27:29;;;;;;;3.77;1.50;;;;;;;;;;4990476;28;20233;-83
2023/05/16 03:29:57;;;;;;;3.83;1.53;;;;;;;;;;4966313;28;20238;-87
2023/05/16 03:32:25;;;;;;;2.77;1.30;;;;;;;;;;4946998;28;20229;-85
2023/05/16 03:34:50;;;;;;;3.90;1.53;;;;;;;;;;4946935;28;20218;-84
2023/05/16 03:37:16;;;;;;;5.67;2.00;;;;;;;;;;4947791;28;20227;-85
2023/05/16 03:39:46;;;;;;;3.30;1.60;;;;;;;;;;5001293;28;20254;-84
2023/05/16 03:42:12;;;;;;;6.47;2.00;;;;;;;;;;4968211;28;20230;-86
2023/05/16 03:44:40;;;;;;;5.03;1.80;;;;;;;;;;4987943;28;20225;-86
2023/05/16 03:47:10;;;;;;;2.73;1.63;;;;;;;;;;4972731;28;20254;-86
2023/05/16 03:49:43;;;;;;;5.40;1.83;;;;;;;;;;4996764;28;20218;-84
2023/05/16 03:52:11;;;;;;;5.93;2.13;;;;;;;;;;4968499;28;20308;-84
2023/05/16 03:54:41;;;;;;;4.67;1.87;;;;;;;;;;4972867;28;20232;-85
2023/05/16 03:57:07;;;;;;;5.23;2.03;;;;;;;;;;4947340;28;20301;-85
2023/05/16 03:59:35;;;;;;;7.07;1.90;;;;;;;;;;4983807;28;20218;-85
2023/05/16 04:02:00;;;;;;;4.47;2.00;;;;;;;;;;4953876;28;20261;-83
2023/05/16 04:04:28;;;;;;;6.50;2.13;;;;;;;;;;5002788;28;20695;-84
2023/05/16 04:06:56;;;;;;;4.07;1.83;;;;;;;;;;4976856;28;20234;-84
2023/05/16 04:09:21;;;;;;;7.73;2.00;;;;;;;;;;4993731;28;20277;-87
2023/05/16 04:11:47;;;;;;;5.63;1.80;;;;;;;;;;5000703;28;20337;-85
2023/05/16 04:14:14;;;;;;;4.23;1.77;;;;;;;;;;4929122;28;20233;-87
2023/05/16 04:16:40;;;;;;;5.10;2.50;;;;;;;;;;4962409;28;20751;-83
2023/05/16 04:19:06;;;;;;;4.97;1.97;;;;;;;;;;4996636;28;20288;-84
2023/05/16 04:21:35;;;;;;;5.00;2.03;;;;;;;;;;4996886;28;20238;-83
2023/05/16 04:24:00;;;;;;;5.43;1.87;;;;;;;;;;4968455;28;20296;-83
2023/05/16 04:26:26;;;;;;;6.63;2.03;;;;;;;;;;4979659;28;20226;-82
2023/05/16 04:28:54;;;;;;;4.83;1.80;;;;;;;;;;4987288;28;20553;-83
2023/05/16 04:31:25;;;;;;;3.97;1.80;;;;;;;;;;4954900;28;20311;-84
2023/05/16 04:33:51;;;;;;;4.97;1.80;;;;;;;;;;4957099;28;20222;-84
2023/05/16 04:36:16;;;;;;;4.77;1.90;;;;;;;;;;4984824;28;20242;-82
2023/05/16 04:38:42;;;;;;;7.60;2.30;;;;;;;;;;4998540;28;20692;-82
2023/05/16 04:41:08;;;;;;;5.20;1.77;;;;;;;;;;4953894;28;20308;-82
2023/05/16 04:43:36;;;;;;;4.33;2.17;;;;;;;;;;5017678;28;20245;-81
2023/05/16 04:46:02;;;;;;;4.70;2.10;;;;;;;;;;4965287;28;20230;-84
2023/05/16 04:48:31;;;;;;;6.40;2.03;;;;;;;;;;4995611;28;20225;-85
2023/05/16 04:50:56;;;;;;;6.80;2.20;;;;;;;;;;4965227;28;20222;-84
2023/05/16 04:53:22;;;;;;;5.90;1.97;;;;;;;;;;4940480;28;21699;-89
2023/05/16 04:55:52;;;;;;;4.67;1.90;;;;;;;;;;4946044;28;20313;-85
2023/05/16 04:58:18;;;;;;;4.70;1.60;;;;;;;;;;4967254;28;20608;-86
2023/05/16 05:00:46;;;;;;;4.67;1.60;;;;;;;;;;4972301;28;20218;-84
2023/05/16 05:03:14;;;;;;;6.33;1.77;;;;;;;;;;4971587;28;20233;-86
2023/05/16 05:05:40;;;;;;;6.50;1.90;;;;;;;;;;4963531;28;20631;-85
2023/05/16 05:08:08;;;;;;;6.27;1.70;;;;;;;;;;4950231;28;20214;-83
2023/05/16 05:10:34;;;;;;;5.57;2.10;;;;;;;;;;4962576;28;20233;-83
2023/05/16 05:13:02;;;;;;;3.37;1.67;;;;;;;;;;4970817;28;20663;-87
2023/05/16 05:15:28;;;;;;;4.40;1.50;;;;;;;;;;4937556;28;20231;-86
2023/05/16 05:17:53;;;;;;;5.30;1.97;;;;;;;;;;4932299;28;20249;-87
2023/05/16 05:20:19;;;;;;;6.53;1.93;;;;;;;;;;4967818;28;20221;-86
2023/05/16 05:22:47;;;;;;;6.93;1.83;;;;;;;;;;4970960;28;20357;-85
2023/05/16 05:25:12;;;;;;;4.40;1.67;;;;;;;;;;4963376;28;20330;-84
2023/05/16 05:27:43;;;;;;;6.80;1.70;;;;;;;;;;4979294;28;20292;-86
2023/05/16 05:30:11;;;;;;;4.13;1.90;;;;;;;;;;4961817;28;20276;-85
2023/05/16 05:32:36;;;;;;;6.70;1.90;;;;;;;;;;4994460;28;20210;-86
2023/05/16 05:35:08;;;;;;;6.07;1.90;;;;;;;;;;4965789;28;20222;-83
2023/05/16 05:37:41;;;;;;;5.10;2.00;;;;;;;;;;4939084;28;20214;-87
2023/05/16 05:40:09;;;;;;;4.57;1.70;;;;;;;;;;4963230;28;20601;-83
2023/05/16 05:42:34;;;;;;;5.93;1.90;;;;;;;;;;4952735;28;20238;-85
2023/05/16 05:45:03;;;;;;;7.80;1.93;;;;;;;;;;4946796;28;20222;-87
2023/05/16 05:47:29;;;;;;;6.70;1.93;;;;;;;;;;4939258;28;20226;-85
2023/05/16 05:49:54;;;;;;;4.90;1.93;;;;;;;;;;4929206;28;20357;-86
2023/05/16 05:52:20;;;;;;;8.20;1.90;;;;;;;;;;4969462;28;20290;-86
2023/05/16 05:54:47;;;;;;;5.67;1.87;;;;;;;;;;4947012;28;20230;-86
2023/05/16 05:57:15;;;;;;;4.50;1.70;;;;;;;;;;4930635;28;20296;-84
2023/05/16 05:59:41;;;;;;;5.03;1.80;;;;;;;;;;4960592;28;20253;-84
2023/05/16 06:02:07;;;;;;;5.53;1.63;;;;;;;;;;4960463;28;20230;-80
2023/05/16 06:04:35;;;;;;;5.17;1.87;;;;;;;;;;4936089;28;20225;-82
2023/05/16 06:07:00;;;;;;;4.77;1.60;;;;;;;;;;4952170;28;20227;-82
2023/05/16 06:09:26;;;;;;;4.07;1.50;;;;;;;;;;4968036;28;20276;-84
2023/05/16 06:11:51;;;;;;;4.17;1.57;;;;;;;;;;4984557;28;20269;-83
2023/05/16 06:14:19;;;;;;;2.93;1.20;;;;;;;;;;5002138;28;20230;-83
2023/05/16 06:16:45;;;;;;;4.67;1.63;;;;;;;;;;4924002;28;20222;-82
2023/05/16 06:19:14;;;;;;;4.23;1.60;;;;;;;;;;4941330;28;20757;-81
2023/05/16 06:21:40;;;;;;;3.87;1.83;;;;;;;;;;4946216;28;20229;-83
2023/05/16 06:24:09;;;;;;;4.87;1.50;;;;;;;;;;4975562;28;20234;-82
2023/05/16 06:26:35;;;;;;;4.33;1.67;;;;;;;;;;4946540;28;20219;-82
2023/05/16 06:29:00;;;;;;;5.93;1.90;;;;;;;;;;4963377;28;20237;-81
2023/05/16 06:31:26;;;;;;;4.97;1.80;;;;;;;;;;4980930;28;20943;-82
2023/05/16 06:33:51;;;;;;;5.57;2.00;;;;;;;;;;4932060;28;20840;-82
2023/05/16 06:36:17;;;;;;;5.20;1.60;;;;;;;;;;4964299;28;20224;-81
2023/05/16 06:38:42;;;;;;;4.33;1.60;;;;;;;;;;4938096;28;20226;-84
2023/05/16 06:41:10;;;;;;;5.67;1.60;;;;;;;;;;4943141;28;20226;-82
2023/05/16 06:43:36;;;;;;;4.93;1.33;;;;;;;;;;4975938;28;20233;-83
2023/05/16 06:46:02;;;;;;;3.67;1.40;;;;;;;;;;4937863;28;20222;-83
2023/05/16 06:48:28;;;;;;;5.33;1.50;;;;;;;;;;4935385;28;20242;-78
2023/05/16 06:50:54;;;;;;;4.03;1.10;;;;;;;;;;4963195;28;20225;-80
2023/05/16 06:53:22;;;;;;;3.97;1.23;;;;;;;;;;4926367;28;20219;-80
2023/05/16 06:55:50;;;;;;;6.23;1.50;;;;;;;;;;4972207;28;20229;-84
2023/05/16 06:58:17;;;;;;;6.70;1.83;;;;;;;;;;4944787;28;20233;-80
2023/05/16 07:00:43;;;;;;;3.53;1.30;;;;;;;;;;4981288;28;20226;-84
2023/05/16 07:03:08;;;;;;;4.20;1.40;;;;;;;;;;4926023;28;20718;-80
2023/05/16 07:05:34;;;;;;;3.67;1.17;;;;;;;;;;4985470;28;20680;-82
2023/05/16 07:08:00;;;;;;;3.37;1.53;;;;;;;;;;4940023;28;20222;-83
2023/05/16 07:10:26;;;;;;;3.60;1.50;;;;;;;;;;4939171;28;20226;-83
2023/05/16 07:12:51;;;;;;;3.47;1.87;;;;;;;;;;4934294;28;20313;-85
2023/05/16 07:15:17;;;;;;;3.30;1.53;;;;;;;;;;4930168;28;20219;-84
2023/05/16 07:17:42;;;;;;;4.87;1.73;;;;;;;;;;4939326;28;20214;-84
2023/05/16 07:20:13;;;;;;;6.00;1.70;;;;;;;;;;4965346;28;20219;-84
2023/05/16 07:22:39;;;;;;;4.37;1.87;;;;;;;;;;4974891;28;20272;-83
2023/05/16 07:25:05;;;;;;;4.50;1.77;;;;;;;;;;4980705;28;20217;-82
2023/05/16 07:27:33;;;;;;;5.27;1.50;;;;;;;;;;5005524;28;20217;-80
2023/05/16 07:29:58;;;;;;;4.20;1.30;;;;;;;;;;4977048;28;20643;-80
2023/05/16 07:32:24;;;;;;;4.80;1.60;;;;;;;;;;4957437;28;20226;-83
2023/05/16 07:34:49;;;;;;;4.33;1.53;;;;;;;;;;4982535;28;20226;-81
2023/05/16 07:37:15;;;;;;;5.67;1.90;;;;;;;;;;4996283;28;20230;-81
2023/05/16 07:39:41;;;;;;;4.17;1.50;;;;;;;;;;4931247;28;20234;-82
2023/05/16 07:42:07;;;;;;;7.95;2.30;;;;;;;;;;4972387;28;20226;-83
2023/05/16 07:44:33;;;;;;;4.35;1.80;;;;;;;;;;4978128;28;20230;-81
2023/05/16 07:46:58;;;;;;;5.57;2.30;;;;;;;;;;4989729;28;20222;-82
2023/05/16 07:49:24;;;;;;;5.38;1.60;;;;;;;;;;4963343;28;20245;-83
2023/05/16 07:51:49;;;;;;;4.55;1.60;;;;;;;;;;4930422;29;20231;-82
2023/05/16 07:54:15;;;;;;;3.70;1.58;;;;;;;;;;4973169;28;20221;-80
2023/05/16 07:56:40;;;;;;;6.10;1.53;;;;;;;;;;4956695;28;20221;-83
2023/05/16 07:59:09;;;;;;;4.93;1.87;;;;;;;;;;4954412;28;20236;-83
2023/05/16 08:01:35;;;;;;;3.53;1.33;;;;;;;;;;4967634;28;20221;-82
2023/05/16 08:04:00;;;;;;;4.73;1.40;;;;;;;;;;4971059;28;20522;-81
2023/05/16 08:06:28;;;;;;;4.10;1.50;;;;;;;;;;4967732;28;20218;-82
2023/05/16 08:08:57;;;;;;;4.03;1.48;;;;;;;;;;4958165;28;20226;-82
2023/05/16 08:11:25;;;;;;;3.73;1.20;;;;;;;;;;4939627;28;20226;-81
2023/05/16 08:13:50;;;;;;;3.27;1.40;;;;;;;;;;4926841;29;20218;-83
2023/05/16 08:16:16;;;;;;;3.87;1.30;;;;;;;;;;4964079;28;20236;-82
2023/05/16 08:18:41;;;;;;;2.33;1.15;;;;;;;;;;4952245;28;20268;-79
2023/05/16 08:21:07;;;;;;;4.53;1.53;;;;;;;;;;4956676;28;20226;-78
2023/05/16 08:23:33;;;;;;;5.03;1.60;;;;;;;;;;4964719;28;20230;-81
2023/05/16 08:26:04;;;;;;;4.60;1.43;;;;;;;;;;4945939;28;20304;-80
2023/05/16 08:28:29;;;;;;;3.50;1.30;;;;;;;;;;4959756;28;20245;-80
2023/05/16 08:30:55;;;;;;;6.57;1.30;;;;;;;;;;5005659;28;20223;-83
2023/05/16 08:33:21;;;;;;;4.03;1.50;;;;;;;;;;4958856;28;20234;-82
2023/05/16 08:35:48;;;;;;;5.35;1.42;;;;;;;;;;4948170;28;20218;-83
2023/05/16 08:38:16;;;;;;;4.93;1.47;;;;;;;;;;4957759;28;20232;-79
2023/05/16 08:40:44;;;;;;;4.43;1.40;;;;;;;;;;4958299;28;20230;-82
2023/05/16 08:43:09;;;;;;;6.57;1.73;;;;;;;;;;4954074;28;20354;-80
2023/05/16 08:45:35;;;;;;;4.43;1.50;;;;;;;;;;4970721;28;20277;-82
2023/05/16 08:48:01;;;;;;;4.50;1.00;;;;;;;;;;4957055;28;20261;-83
2023/05/16 08:50:29;;;;;;;3.00;1.10;;;;;;;;;;4935737;28;20222;-84
2023/05/16 08:52:55;;;;;;;2.00;1.20;;;;;;;;;;4962352;28;20365;-84
2023/05/16 08:55:23;;;;;;;2.42;1.02;;;;;;;;;;4927668;28;20222;-83
2023/05/16 08:57:56;;;;;;;3.67;1.02;;;;;;;;;;4989176;28;20233;-81
2023/05/16 09:00:22;;;;;;;3.13;1.02;;;;;;;;;;4955558;28;20623;-80
2023/05/16 09:02:48;;;;;;;3.58;1.08;;;;;;;;;;4947987;28;20257;-79
2023/05/16 09:05:14;;;;;;;2.35;0.90;;;;;;;;;;4949434;28;20314;-81
2023/05/16 09:07:41;;;;;;;2.80;1.08;;;;;;;;;;4973879;28;20231;-84
2023/05/16 09:10:10;;;;;;;2.30;0.85;;;;;;;;;;4960785;28;20215;-81
2023/05/16 09:12:35;;;;;;;2.50;1.08;;;;;;;;;;4962240;28;20228;-82
2023/05/16 09:15:01;;;;;;;2.25;0.90;;;;;;;;;;4957666;28;20805;-80
2023/05/16 09:17:43;;;;;;;3.85;1.10;;;;;;;;;;4959534;28;20214;-81
2023/05/16 09:20:16;;;;;;;1.60;0.82;;;;;;;;;;4984985;28;20222;-83
2023/05/16 09:22:51;;;;;;;1.98;0.90;;;;;;;;;;4961126;28;20234;-84
2023/05/16 09:25:17;;;;;;;3.92;0.90;;;;;;;;;;4951929;28;20229;-82
2023/05/16 09:27:42;;;;;;;3.20;1.13;;;;;;;;;;4959455;28;20229;-81
2023/05/16 09:30:08;;;;;;;2.60;1.17;;;;;;;;;;4944242;28;20225;-82
2023/05/16 09:32:36;;;;;;;3.38;1.38;;;;;;;;;;5000042;28;20994;-80
2023/05/16 09:35:02;;;;;;;3.85;1.20;;;;;;;;;;4936122;28;20215;-83
2023/05/16 09:37:27;;;;;;;4.53;1.40;;;;;;;;;;4935561;28;20745;-83
2023/05/16 09:39:53;;;;;;;2.38;1.10;;;;;;;;;;4962142;28;20225;-80
2023/05/16 09:42:19;;;;;;;1.98;0.88;;;;;;;;;;4954021;28;20898;-81
2023/05/16 09:44:52;;;;;;;3.57;1.10;;;;;;;;;;4960316;28;20239;-81
2023/05/16 09:47:19;;;;;;;1.73;1.00;;;;;;;;;;4941938;28;20314;-81
2023/05/16 09:49:45;;;;;;;1.83;0.73;;;;;;;;;;4959125;28;20329;-83
2023/05/16 09:52:10;;;;;;;1.80;0.70;;;;;;;;;;4935427;28;20279;-81
2023/05/16 09:54:38;;;;;;;0.75;0.55;;;;;;;;;;5001703;28;20218;-82
2023/05/16 09:57:04;;;;;;;1.92;0.70;;;;;;;;;;4921230;28;20309;-80
2023/05/16 09:59:31;;;;;;;1.80;0.90;;;;;;;;;;4956481;28;20836;-80
2023/05/16 10:01:58;;;;;;;2.88;0.90;;;;;;;;;;4941646;28;20233;-84
2023/05/16 10:04:23;;;;;;;2.13;0.90;;;;;;;;;;4972344;28;20238;-82
2023/05/16 10:06:50;;;;;;;2.70;1.20;;;;;;;;;;4920352;28;20229;-82
2023/05/16 10:09:15;;;;;;;2.60;1.00;;;;;;;;;;4932876;28;20313;-81
2023/05/16 10:11:41;;;;;;;2.17;1.00;;;;;;;;;;4942073;28;20222;-85
2023/05/16 10:14:09;;;;;;;2.47;1.08;;;;;;;;;;4958579;28;20674;-82
2023/05/16 10:16:35;;;;;;;2.22;0.80;;;;;;;;;;4977931;28;20221;-82
2023/05/16 10:19:01;;;;;;;1.80;1.00;;;;;;;;;;4941907;28;20218;-82
2023/05/16 10:21:28;;;;;;;3.17;1.20;;;;;;;;;;4962049;28;20703;-83
2023/05/16 10:23:53;;;;;;;2.88;1.17;;;;;;;;;;4959185;28;20616;-83
2023/05/16 10:26:21;;;;;;;2.58;0.90;;;;;;;;;;4938252;28;20265;-83
2023/05/16 10:28:51;;;;;;;3.45;0.85;;;;;;;;;;4954275;28;20222;-81
2023/05/16 10:31:17;;;;;;;3.47;1.10;;;;;;;;;;4931214;28;20711;-80
2023/05/16 10:33:43;;;;;;;2.47;0.85;;;;;;;;;;4933227;28;20252;-82
2023/05/16 10:36:08;;;;;;;3.97;1.55;;;;;;;;;;4975970;28;20796;-83
2023/05/16 10:38:34;;;;;;;2.92;0.95;;;;;;;;;;4960786;28;20316;-82
2023/05/16 10:41:00;;;;;;;2.58;0.98;;;;;;;;;;4958473;28;20567;-85
2023/05/16 10:43:26;;;;;;;2.90;1.00;;;;;;;;;;4928740;28;20226;-81
2023/05/16 10:46:07;;;;;;;2.53;0.80;;;;;;;;;;4930550;28;20253;-81
2023/05/16 10:48:34;;;;;;;1.83;0.88;;;;;;;;;;4949822;28;20227;-82
2023/05/16 10:51:01;;;;;;;2.65;0.73;;;;;;;;;;4956762;28;20226;-82
2023/05/16 10:53:35;;;;;;;1.50;0.77;;;;;;;;;;4941994;28;20712;-83
2023/05/16 10:56:02;;;;;;;2.10;0.98;;;;;;;;;;4939569;28;20937;-82
2023/05/16 10:58:39;;;;;;;1.75;0.70;;;;;;;;;;4957061;28;20233;-84
2023/05/16 11:01:21;;;;;;;2.40;0.90;;;;;;;;;;4986130;28;20305;-81
2023/05/16 11:03:55;;;;;;;1.52;0.93;;;;;;;;;;4955507;28;20261;-81
2023/05/16 11:06:27;;;;;;;2.25;0.80;;;;;;;;;;4970540;28;20225;-82
2023/05/16 11:11:53;;;;;;;2.55;0.90;;;;;;;;;;4969938;28;20317;-82
2023/05/16 11:14:22;;;;;;;2.50;0.90;;;;;;;;;;4960355;28;20249;-80
2023/05/16 11:16:53;;;;;;;2.90;1.30;;;;;;;;;;4970239;28;20269;-81
2023/05/16 11:19:35;;;;;;;3.08;1.10;;;;;;;;;;4944452;28;20227;-80
2023/05/16 11:22:10;;;;;;;1.65;1.00;;;;;;;;;;4989056;28;20261;-81
2023/05/16 11:24:38;;;;;;;4.18;0.93;;;;;;;;;;4972278;28;20314;-82
2023/05/16 11:27:04;;;;;;;3.63;1.10;;;;;;;;;;4933755;28;20251;-81
2023/05/16 11:29:41;;;;;;;1.88;0.77;;;;;;;;;;4936346;28;20217;-81
2023/05/16 11:32:06;;;;;;;2.45;1.25;;;;;;;;;;4974574;28;20245;-82
2023/05/16 11:34:36;;;;;;;2.03;0.88;;;;;;;;;;4964417;28;20226;-83
2023/05/16 11:37:02;;;;;;;2.67;1.20;;;;;;;;;;4959072;28;20242;-79
2023/05/16 11:39:30;;;;;;;2.55;0.80;;;;;;;;;;4975082;28;20225;-81
2023/05/16 11:41:56;;;;;;;2.60;0.93;;;;;;;;;;4945972;28;20338;-80
2023/05/16 11:44:22;;;;;;;3.78;0.85;;;;;;;;;;4955307;28;20286;-81
2023/05/16 11:46:50;;;;;;;1.35;0.85;;;;;;;;;;4971693;28;20218;-81
2023/05/16 11:49:16;;;;;;;1.25;0.63;;;;;;;;;;4930650;28;20228;-80
2023/05/16 11:51:42;;;;;;;1.60;0.77;;;;;;;;;;4984704;28;20694;-79
2023/05/16 11:54:08;;;;;;;1.40;0.85;;;;;;;;;;4976598;28;20261;-81
2023/05/16 11:56:34;;;;;;;1.83;1.00;;;;;;;;;;4942836;28;20249;-79
2023/05/16 11:59:02;;;;;;;1.70;1.02;;;;;;;;;;4935482;28;20659;-80
2023/05/16 12:01:36;;;;;;;2.88;0.80;;;;;;;;;;4997777;28;20228;-83
2023/05/16 12:04:14;;;;;;;1.88;1.05;;;;;;;;;;4980040;28;20332;-85
2023/05/16 12:06:43;;;;;;;3.28;0.98;;;;;;;;;;4954749;28;20245;-83
2023/05/16 12:09:12;;;;;;;1.83;0.80;;;;;;;;;;4979715;28;20233;-84
2023/05/16 12:11:44;;;;;;;2.15;1.08;;;;;;;;;;4968598;28;20223;-81
2023/05/16 12:14:10;;;;;;;3.33;1.20;;;;;;;;;;4970118;28;20222;-82
2023/05/16 12:16:36;;;;;;;2.80;0.90;;;;;;;;;;4956430;28;20241;-80
2023/05/16 12:19:03;;;;;;;1.13;0.80;;;;;;;;;;4945898;28;20223;-84
2023/05/16 12:21:34;;;;;;;1.88;1.00;;;;;;;;;;4931495;28;20250;-84
2023/05/16 12:23:59;;;;;;;1.88;0.82;;;;;;;;;;4944561;28;20245;-85
2023/05/16 12:26:32;;;;;;;0.93;0.73;;;;;;;;;;4997930;28;20206;-84
2023/05/16 12:29:02;;;;;;;1.40;0.95;;;;;;;;;;4988099;28;20285;-86
2023/05/16 12:31:29;;;;;;;2.92;0.70;;;;;;;;;;4978979;28;20270;-86
2023/05/16 12:33:55;;;;;;;1.67;0.85;;;;;;;;;;4967081;28;20225;-86
2023/05/16 12:36:21;;;;;;;3.22;1.00;;;;;;;;;;4966492;28;20226;-86
2023/05/16 12:38:52;;;;;;;1.00;0.80;;;;;;;;;;4947613;28;20230;-87
2023/05/16 12:41:21;;;;;;;2.40;1.00;;;;;;;;;;4975417;28;20261;-87
2023/05/16 12:43:50;;;;;;;1.23;0.70;;;;;;;;;;4932665;28;20676;-87
2023/05/16 12:46:16;;;;;;;2.70;0.93;;;;;;;;;;4944385;28;20281;-87
2023/05/16 12:48:46;;;;;;;1.85;1.00;;;;;;;;;;4955134;28;20223;-86
2023/05/16 12:51:12;;;;;;;2.20;0.90;;;;;;;;;;4924274;28;20222;-84
2023/05/16 12:53:47;;;;;;;2.40;1.10;;;;;;;;;;4965323;28;20676;-87
2023/05/16 12:56:21;;;;;;;2.03;0.82;;;;;;;;;;4963528;28;20206;-85
2023/05/16 12:58:51;;;;;;;1.50;0.80;;;;;;;;;;4994296;28;20230;-87
2023/05/16 13:01:17;;;;;;;1.50;0.82;;;;;;;;;;4977784;28;20768;-84
2023/05/16 13:03:45;;;;;;;2.55;1.17;;;;;;;;;;4950745;28;20226;-84
2023/05/16 13:06:11;;;;;;;2.78;0.90;;;;;;;;;;4975046;28;20222;-84
2023/05/16 13:08:37;;;;;;;1.48;0.70;;;;;;;;;;4984036;28;20242;-85
2023/05/16 13:11:05;;;;;;;2.10;1.00;;;;;;;;;;4957180;28;20216;-87
2023/05/16 13:13:33;;;;;;;1.90;1.00;;;;;;;;;;4947062;28;20226;-85
2023/05/16 13:16:00;;;;;;;2.05;0.90;;;;;;;;;;4979037;28;20236;-88
2023/05/16 13:18:30;;;;;;;2.03;0.70;;;;;;;;;;4965098;28;20254;-86
2023/05/16 13:20:55;;;;;;;1.52;0.90;;;;;;;;;;4931826;28;20225;-84
2023/05/16 13:23:21;;;;;;;1.75;0.95;;;;;;;;;;4940194;28;20233;-86
2023/05/16 13:25:46;;;;;;;2.50;0.77;;;;;;;;;;4970483;28;20270;-88
2023/05/16 13:28:12;;;;;;;1.63;1.00;;;;;;;;;;4959318;28;20305;-86
2023/05/16 13:30:37;;;;;;;1.63;1.00;;;;;;;;;;4965524;28;20253;-87
2023/05/16 13:33:05;;;;;;;1.80;0.80;;;;;;;;;;4972343;28;20225;-87
2023/05/16 13:35:31;;;;;;;1.35;0.80;;;;;;;;;;4960723;28;20691;-83
2023/05/16 13:37:58;;;;;;;2.53;1.20;;;;;;;;;;4947965;28;20361;-87
2023/05/16 13:40:24;;;;;;;3.67;1.33;;;;;;;;;;4963819;28;20297;-87
2023/05/16 13:42:52;;;;;;;4.82;1.05;;;;;;;;;;4938978;28;20650;-85
2023/05/16 13:45:20;;;;;;;1.05;0.80;;;;;;;;;;4977889;28;20601;-85
2023/05/16 13:47:50;;;;;;;7.38;1.05;;;;;;;;;;4969376;28;20225;-85
2023/05/16 13:50:18;;;;;;;3.10;1.23;;;;;;;;;;4940620;28;20226;-89
2023/05/16 13:52:46;;;;;;;3.35;1.10;;;;;;;;;;4975516;28;21092;-84
2023/05/16 13:55:12;;;;;;;3.50;1.30;;;;;;;;;;4947121;28;20227;-85
2023/05/16 13:57:38;;;;;;;4.17;1.10;;;;;;;;;;4992274;28;20240;-86
2023/05/16 14:00:12;;;;;;;4.13;1.20;;;;;;;;;;4950649;28;20253;-86
2023/05/16 14:02:41;;;;;;;2.17;1.20;;;;;;;;;;4951937;28;20273;-88
2023/05/16 14:05:07;;;;;;;4.97;1.80;;;;;;;;;;4981476;28;20233;-85
2023/05/16 14:07:35;;;;;;;3.23;1.30;;;;;;;;;;4972643;28;20597;-84
2023/05/16 14:10:05;;;;;;;3.57;1.40;;;;;;;;;;4963728;28;20710;-87
2023/05/16 14:12:36;;;;;;;1.77;0.80;;;;;;;;;;4966003;28;20234;-84
2023/05/16 14:15:01;;;;;;;1.83;0.90;;;;;;;;;;4985015;28;20218;-86
2023/05/16 14:17:27;;;;;;;1.67;0.80;;;;;;;;;;4954623;28;20965;-87
2023/05/16 14:19:52;;;;;;;2.47;1.10;;;;;;;;;;4968754;28;20769;-86
2023/05/16 14:22:18;;;;;;;1.97;1.00;;;;;;;;;;4944034;28;20305;-87
2023/05/16 14:24:44;;;;;;;2.80;0.98;;;;;;;;;;4966418;28;20222;-87
2023/05/16 14:27:09;;;;;;;3.65;1.00;;;;;;;;;;4934862;28;20230;-86
2023/05/16 14:29:35;;;;;;;1.88;0.90;;;;;;;;;;4945463;28;20306;-87
2023/05/16 14:32:05;;;;;;;1.52;0.70;;;;;;;;;;4923116;28;20229;-87
2023/05/16 14:34:31;;;;;;;2.97;0.80;;;;;;;;;;4946840;28;20261;-86
2023/05/16 14:36:57;;;;;;;2.05;0.90;;;;;;;;;;5009394;28;20218;-87
2023/05/16 14:39:22;;;;;;;2.92;0.90;;;;;;;;;;4938610;28;20265;-85
2023/05/16 14:41:48;;;;;;;1.35;0.75;;;;;;;;;;4961127;28;20222;-86
2023/05/16 14:44:13;;;;;;;3.22;0.80;;;;;;;;;;4941205;28;20234;-88
2023/05/16 14:46:39;;;;;;;1.42;0.75;;;;;;;;;;4957685;28;20222;-85
2023/05/16 14:49:08;;;;;;;1.38;0.70;;;;;;;;;;4937001;28;20218;-80